createdAt,value
2022-12-20T00:00:55.635Z,-0.57
2022-12-20T00:02:57.211Z,-0.54
2022-12-20T00:04:59.207Z,-0.55
2022-12-20T00:07:00.787Z,-0.55
2022-12-20T00:09:02.293Z,-0.58
2022-12-20T00:11:03.397Z,-0.54
2022-12-20T00:13:05.073Z,-0.52
2022-12-20T00:15:07.086Z,-0.51
2022-12-20T00:17:09.055Z,-0.48
2022-12-20T00:19:10.322Z,-0.46
2022-12-20T00:21:11.371Z,-0.44
2022-12-20T00:23:12.629Z,-0.39
2022-12-20T00:25:13.839Z,-0.39
2022-12-20T00:27:14.920Z,-0.4
2022-12-20T00:29:16.139Z,-0.34
2022-12-20T00:31:17.522Z,-0.37
2022-12-20T00:33:19.038Z,-0.38
2022-12-20T00:35:20.676Z,-0.41
2022-12-20T00:37:22.148Z,-0.41
2022-12-20T00:39:23.904Z,-0.45
2022-12-20T00:41:25.939Z,-0.46
2022-12-20T00:43:27.432Z,-0.45
2022-12-20T00:45:28.836Z,-0.48
2022-12-20T00:47:30.599Z,-0.47
2022-12-20T00:49:32.250Z,-0.49
2022-12-20T00:51:33.734Z,-0.49
2022-12-20T00:53:35.726Z,-0.49
2022-12-20T00:55:37.604Z,-0.49
2022-12-20T00:57:38.782Z,-0.49
2022-12-20T00:59:40.136Z,-0.51
2022-12-20T01:01:42.263Z,-0.52
2022-12-20T01:03:43.515Z,-0.53
2022-12-20T01:05:45.200Z,-0.55
2022-12-20T01:07:46.241Z,-0.53
2022-12-20T01:09:47.830Z,-0.52
2022-12-20T01:11:49.034Z,-0.52
2022-12-20T01:13:50.325Z,-0.5
2022-12-20T01:15:51.755Z,-0.46
2022-12-20T01:17:53.759Z,-0.42
2022-12-20T01:19:55.393Z,-0.41
2022-12-20T01:21:56.631Z,-0.39
2022-12-20T01:23:58.542Z,-0.34
2022-12-20T01:25:59.766Z,-0.24
2022-12-20T01:28:01.448Z,-0.31
2022-12-20T01:30:02.605Z,-0.31
2022-12-20T01:32:04.283Z,-0.33
2022-12-20T01:34:05.581Z,-0.31
2022-12-20T01:36:07.067Z,-0.33
2022-12-20T01:38:08.335Z,-0.28
2022-12-20T01:40:09.416Z,-0.29
2022-12-20T01:42:11.014Z,-0.31
2022-12-20T01:44:12.233Z,-0.3
2022-12-20T01:46:14.011Z,-0.26
2022-12-20T01:48:15.333Z,-0.26
2022-12-20T01:50:16.611Z,-0.24
2022-12-20T01:52:17.677Z,-0.24
2022-12-20T01:54:19.737Z,-0.2
2022-12-20T01:56:20.964Z,-0.14
2022-12-20T01:58:22.803Z,-0.14
2022-12-20T02:00:24.583Z,-0.17
2022-12-20T02:02:26.356Z,-0.23
2022-12-20T02:04:27.888Z,-0.26
2022-12-20T02:06:29.678Z,-0.23
2022-12-20T02:08:30.769Z,-0.22
2022-12-20T02:10:32.481Z,-0.18
2022-12-20T02:12:33.900Z,-0.17
2022-12-20T02:14:35.856Z,-0.14
2022-12-20T02:16:37.758Z,-0.19
2022-12-20T02:18:39.674Z,-0.25
2022-12-20T02:20:40.834Z,-0.21
2022-12-20T02:22:42.149Z,-0.19
2022-12-20T02:24:43.945Z,-0.22
2022-12-20T02:26:45.431Z,-0.21
2022-12-20T02:28:47.232Z,-0.19
2022-12-20T02:30:49.013Z,-0.17
2022-12-20T02:32:50.644Z,-0.11
2022-12-20T02:34:51.898Z,-0.19
2022-12-20T02:36:53.749Z,-0.2
2022-12-20T02:38:55.234Z,-0.17
2022-12-20T02:40:56.714Z,-0.15
2022-12-20T02:42:58.294Z,-0.11
2022-12-20T02:44:59.819Z,-0.11
2022-12-20T02:47:00.923Z,-0.14
2022-12-20T02:49:02.463Z,-0.1
2022-12-20T02:51:03.864Z,0
2022-12-20T02:53:05.137Z,0
2022-12-20T02:55:06.905Z,0.2
2022-12-20T02:57:08.886Z,0.23
2022-12-20T02:59:10.239Z,0.24
2022-12-20T03:01:12.049Z,0.27
2022-12-20T03:03:13.690Z,0.22
2022-12-20T03:05:15.262Z,0.25
2022-12-20T03:07:17.306Z,0.24
2022-12-20T03:09:18.458Z,0.16
2022-12-20T03:11:20.010Z,0.15
2022-12-20T03:13:20.873Z,0.03
2022-12-20T03:15:22.494Z,0.07
2022-12-20T03:17:24.204Z,0.08
2022-12-20T03:19:25.672Z,0.09
2022-12-20T03:21:27.569Z,0.17
2022-12-20T03:23:28.708Z,0.18
2022-12-20T03:25:29.940Z,0.25
2022-12-20T03:27:31.562Z,0.24
2022-12-20T03:29:33.028Z,0.32
2022-12-20T03:31:34.798Z,0.39
2022-12-20T03:33:36.430Z,0.42
2022-12-20T03:35:37.767Z,0.48
2022-12-20T03:37:39.095Z,0.39
2022-12-20T03:39:40.785Z,0.42
2022-12-20T03:41:41.989Z,0.51
2022-12-20T03:43:43.098Z,0.45
2022-12-20T03:45:44.675Z,0.44
2022-12-20T03:47:46.644Z,0.37
2022-12-20T03:49:48.309Z,0.25
2022-12-20T03:51:49.717Z,0.23
2022-12-20T03:53:51.755Z,0.2
2022-12-20T03:55:53.610Z,0.2
2022-12-20T03:57:54.720Z,0.2
2022-12-20T03:59:55.907Z,0.2
2022-12-20T04:01:57.773Z,0.21
2022-12-20T04:03:59.351Z,0.23
2022-12-20T04:06:00.458Z,0.2
2022-12-20T04:08:02.251Z,0.24
2022-12-20T04:10:03.849Z,0.24
2022-12-20T04:12:04.954Z,0.26
2022-12-20T04:14:06.917Z,0.27
2022-12-20T04:16:08.846Z,0.3
2022-12-20T04:18:09.907Z,0.28
2022-12-20T04:20:11.818Z,0.3
2022-12-20T04:22:13.491Z,0.28
2022-12-20T04:24:15.167Z,0.25
2022-12-20T04:26:16.906Z,0.24
2022-12-20T04:28:18.371Z,0.28
2022-12-20T04:30:19.699Z,0.28
2022-12-20T04:32:21.837Z,0.28
2022-12-20T04:34:23.038Z,0.25
2022-12-20T04:36:24.931Z,0.23
2022-12-20T04:38:26.013Z,0.27
2022-12-20T04:40:28.000Z,0.25
2022-12-20T04:42:29.529Z,0.24
2022-12-20T04:44:30.631Z,0.26
2022-12-20T04:46:31.831Z,0.23
2022-12-20T04:48:56.025Z,0.18
2022-12-20T04:50:34.678Z,0.25
2022-12-20T04:52:36.046Z,0.24
2022-12-20T04:54:37.113Z,0.34
2022-12-20T04:56:38.441Z,0.33
2022-12-20T04:58:39.684Z,0.34
2022-12-20T05:00:41.435Z,0.39
2022-12-20T05:02:43.150Z,0.36
2022-12-20T05:04:44.699Z,0.37
2022-12-20T05:06:46.799Z,0.33
2022-12-20T05:08:48.488Z,0.32
2022-12-20T05:10:50.435Z,0.21
2022-12-20T05:12:52.323Z,0.11
2022-12-20T05:14:54.525Z,0.21
2022-12-20T05:16:56.351Z,0.29
2022-12-20T05:18:57.797Z,0.33
2022-12-20T05:20:59.338Z,0.42
2022-12-20T05:23:00.703Z,0.53
2022-12-20T05:25:02.335Z,0.49
2022-12-20T05:27:03.592Z,0.42
2022-12-20T05:29:05.284Z,0.52
2022-12-20T05:31:06.748Z,0.67
2022-12-20T05:31:50.638Z,0.59
2022-12-20T05:33:52.547Z,0.38
2022-12-20T05:35:53.853Z,0.39
2022-12-20T05:37:55.246Z,0.35
2022-12-20T05:39:57.009Z,0.33
2022-12-20T05:41:58.420Z,0.34
2022-12-20T05:43:59.900Z,0.35
2022-12-20T05:46:01.037Z,0.44
2022-12-20T05:48:02.106Z,0.43
2022-12-20T05:50:04.032Z,0.42
2022-12-20T05:52:05.438Z,0.34
2022-12-20T05:54:06.743Z,0.3
2022-12-20T05:56:08.193Z,0.26
2022-12-20T05:58:10.061Z,0.24
2022-12-20T06:00:12.086Z,0.2
2022-12-20T06:02:13.966Z,0.2
2022-12-20T06:04:15.621Z,0.16
2022-12-20T06:08:18.068Z,0.1
2022-12-20T06:10:19.263Z,0.09
2022-12-20T06:12:21.109Z,0.06
2022-12-20T06:14:23.000Z,0.08
2022-12-20T06:16:24.486Z,0.08
2022-12-20T06:18:25.898Z,0.07
2022-12-20T06:20:28.062Z,0.1
2022-12-20T06:22:29.843Z,0.08
2022-12-20T06:24:31.376Z,0.09
2022-12-20T06:26:33.070Z,0.14
2022-12-20T06:28:34.192Z,0.09
2022-12-20T06:30:35.637Z,0.14
2022-12-20T06:32:36.981Z,0.12
2022-12-20T06:34:38.647Z,0.12
2022-12-20T06:36:39.969Z,0.05
2022-12-20T06:38:41.146Z,0.04
2022-12-20T06:40:42.917Z,0.03
2022-12-20T06:42:44.472Z,0.05
2022-12-20T06:44:45.992Z,0.04
2022-12-20T06:46:48.146Z,0.06
2022-12-20T06:50:55.725Z,0.04
2022-12-20T06:52:53.537Z,0.03
2022-12-20T06:54:55.854Z,0.04
2022-12-20T06:56:57.670Z,0.05
2022-12-20T06:58:59.685Z,0.06
2022-12-20T07:01:01.385Z,0.04
2022-12-20T07:03:03.215Z,0.06
2022-12-20T07:05:04.805Z,0.04
2022-12-20T07:07:06.090Z,0.04
2022-12-20T07:09:08.237Z,0.05
2022-12-20T07:11:09.811Z,0.03
2022-12-20T07:13:11.549Z,0.04
2022-12-20T07:15:13.661Z,0.04
2022-12-20T07:17:15.445Z,0.06
2022-12-20T07:19:17.260Z,0.04
2022-12-20T07:21:18.837Z,0.04
2022-12-20T07:23:20.619Z,0.06
2022-12-20T07:25:22.323Z,0.07
2022-12-20T07:27:23.873Z,0.04
2022-12-20T07:29:25.406Z,0.09
2022-12-20T07:31:26.676Z,0.09
2022-12-20T07:33:28.050Z,0.11
2022-12-20T07:35:29.664Z,0.09
2022-12-20T07:37:30.974Z,0.09
2022-12-20T07:39:32.391Z,0.1
2022-12-20T07:41:33.821Z,0.13
2022-12-20T07:43:35.539Z,0.18
2022-12-20T07:45:36.944Z,0.16
2022-12-20T07:47:38.142Z,0.19
2022-12-20T07:49:39.596Z,0.21
2022-12-20T07:51:41.564Z,0.24
2022-12-20T07:53:43.334Z,0.28
2022-12-20T07:55:44.521Z,0.31
2022-12-20T07:57:46.490Z,0.33
2022-12-20T07:59:47.718Z,0.36
2022-12-20T08:01:49.257Z,0.35
2022-12-20T08:03:50.828Z,0.35
2022-12-20T08:05:52.157Z,0.36
2022-12-20T08:07:58.897Z,0.44
2022-12-20T08:09:55.921Z,0.43
2022-12-20T08:11:57.743Z,0.44
2022-12-20T08:13:59.238Z,0.49
2022-12-20T08:16:00.235Z,0.56
2022-12-20T08:18:01.779Z,0.54
2022-12-20T08:20:03.425Z,0.56
2022-12-20T08:22:04.866Z,0.57
2022-12-20T08:24:06.381Z,0.54
2022-12-20T08:26:08.005Z,0.51
2022-12-20T08:28:09.902Z,0.51
2022-12-20T08:30:11.581Z,0.58
2022-12-20T08:32:12.635Z,0.6
2022-12-20T08:34:14.521Z,0.61
2022-12-20T08:36:16.128Z,0.59
2022-12-20T08:38:17.646Z,0.59
2022-12-20T08:40:19.617Z,0.54
2022-12-20T08:42:20.706Z,0.52
2022-12-20T08:44:22.502Z,0.54
2022-12-20T08:46:23.610Z,0.55
2022-12-20T08:48:24.633Z,0.56
2022-12-20T08:50:26.387Z,0.51
2022-12-20T08:52:28.127Z,0.53
2022-12-20T08:54:30.074Z,0.52
2022-12-20T08:58:33.472Z,0.57
2022-12-20T09:00:34.725Z,0.58
2022-12-20T09:02:36.590Z,0.57
2022-12-20T09:04:37.878Z,0.66
2022-12-20T09:06:39.861Z,0.75
2022-12-20T09:08:41.068Z,0.79
2022-12-20T09:10:42.474Z,0.85
2022-12-20T09:12:44.487Z,0.9
2022-12-20T09:14:45.992Z,0.88
2022-12-20T09:16:47.896Z,0.95
2022-12-20T09:18:49.159Z,1.02
2022-12-20T09:20:50.923Z,1.1
2022-12-20T09:22:52.847Z,1.2
2022-12-20T09:24:54.042Z,1.17
2022-12-20T09:26:55.172Z,1.19
2022-12-20T09:28:56.303Z,1.09
2022-12-20T09:30:57.651Z,1.07
2022-12-20T09:32:58.709Z,1.15
2022-12-20T09:35:00.387Z,1.23
2022-12-20T09:37:01.912Z,1.19
2022-12-20T09:39:03.965Z,1.23
2022-12-20T09:41:05.225Z,1.29
2022-12-20T09:43:06.555Z,1.26
2022-12-20T09:45:07.927Z,1.16
2022-12-20T09:47:10.943Z,1.19
2022-12-20T09:49:10.982Z,1.23
2022-12-20T09:51:12.798Z,1.19
2022-12-20T09:53:18.258Z,1.13
2022-12-20T09:55:16.848Z,1.3
2022-12-20T09:57:18.931Z,1.32
2022-12-20T09:59:20.667Z,1.43
2022-12-20T10:01:25.108Z,1.3
2022-12-20T10:03:24.040Z,1.28
2022-12-20T10:05:25.837Z,1.35
2022-12-20T10:07:27.571Z,1.49
2022-12-20T10:09:28.713Z,1.51
2022-12-20T10:11:34.681Z,1.51
2022-12-20T10:13:31.437Z,1.65
2022-12-20T10:15:32.503Z,1.72
2022-12-20T10:17:33.800Z,1.73
2022-12-20T10:19:35.056Z,1.75
2022-12-20T10:21:36.321Z,1.69
2022-12-20T10:23:37.829Z,1.64
2022-12-20T10:25:38.954Z,1.52
2022-12-20T10:27:40.650Z,1.54
2022-12-20T10:29:42.197Z,1.49
2022-12-20T10:31:43.373Z,1.55
2022-12-20T10:33:44.419Z,1.61
2022-12-20T10:35:45.491Z,1.49
2022-12-20T10:38:06.215Z,1.55
2022-12-20T10:39:48.876Z,1.47
2022-12-20T10:41:50.493Z,1.46
2022-12-20T10:43:51.524Z,1.5
2022-12-20T10:45:53.579Z,1.52
2022-12-20T10:47:54.900Z,1.44
2022-12-20T10:49:56.285Z,1.56
2022-12-20T10:51:57.634Z,1.71
2022-12-20T10:53:58.777Z,1.75
2022-12-20T10:56:00.529Z,1.74
2022-12-20T10:58:01.538Z,1.72
2022-12-20T11:00:02.598Z,1.8
2022-12-20T11:02:03.814Z,1.84
2022-12-20T11:04:05.193Z,1.68
2022-12-20T11:06:06.466Z,1.66
2022-12-20T11:08:33.977Z,1.73
2022-12-20T11:10:09.193Z,1.61
2022-12-20T11:12:10.855Z,1.59
2022-12-20T11:14:12.358Z,1.65
2022-12-20T11:16:14.204Z,1.69
2022-12-20T11:18:15.447Z,1.73
2022-12-20T11:20:17.209Z,1.75
2022-12-20T11:22:18.291Z,1.78
2022-12-20T11:24:20.027Z,1.83
2022-12-20T11:26:21.816Z,1.85
2022-12-20T11:28:23.527Z,1.84
2022-12-20T11:30:25.324Z,1.84
2022-12-20T11:32:26.756Z,1.85
2022-12-20T11:34:28.324Z,1.84
2022-12-20T11:36:29.444Z,1.8
2022-12-20T11:38:31.255Z,1.79
2022-12-20T11:40:33.201Z,1.85
2022-12-20T11:42:35.054Z,1.87
2022-12-20T11:44:36.533Z,1.83
2022-12-20T11:46:38.323Z,1.84
2022-12-20T11:48:39.454Z,1.92
2022-12-20T11:50:41.163Z,1.85
2022-12-20T11:52:42.460Z,1.81
2022-12-20T11:54:43.588Z,1.81
2022-12-20T11:56:45.543Z,1.88
2022-12-20T11:58:46.629Z,1.95
2022-12-20T12:00:47.645Z,2
2022-12-20T12:02:53.169Z,2.04
2022-12-20T12:04:50.603Z,2.14
2022-12-20T12:06:51.882Z,2.06
2022-12-20T12:08:53.549Z,2.18
2022-12-20T12:10:55.196Z,2.27
2022-12-20T12:12:56.603Z,2.26
2022-12-20T12:14:58.164Z,2.19
2022-12-20T12:16:59.946Z,2.22
2022-12-20T12:19:45.352Z,2.32
2022-12-20T12:21:46.844Z,2.33
2022-12-20T12:23:48.197Z,2.19
2022-12-20T12:25:58.862Z,2.15
2022-12-20T12:27:51.750Z,2.13
2022-12-20T12:29:53.231Z,2.14
2022-12-20T12:31:54.356Z,2.14
2022-12-20T12:33:55.761Z,2.16
2022-12-20T12:35:57.426Z,2.14
2022-12-20T12:37:58.593Z,2.04
2022-12-20T12:39:59.960Z,1.88
2022-12-20T12:42:01.881Z,1.92
2022-12-20T12:44:03.539Z,1.91
2022-12-20T12:46:08.444Z,1.9
2022-12-20T12:48:07.024Z,1.91
2022-12-20T12:50:08.288Z,1.91
2022-12-20T12:52:09.940Z,1.86
2022-12-20T12:54:11.674Z,1.89
2022-12-20T12:56:41.928Z,1.9
2022-12-20T12:58:14.204Z,1.95
2022-12-20T13:00:15.662Z,1.88
2022-12-20T13:02:17.435Z,1.91
2022-12-20T13:04:18.807Z,1.94
2022-12-20T13:06:19.862Z,1.92
2022-12-20T13:08:21.447Z,1.94
2022-12-20T13:10:22.630Z,1.92
2022-12-20T13:12:23.965Z,1.86
2022-12-20T13:14:25.601Z,1.88
2022-12-20T13:16:41.965Z,1.91
2022-12-20T13:18:28.148Z,1.85
2022-12-20T13:20:29.814Z,1.89
2022-12-20T13:22:31.165Z,1.87
2022-12-20T13:24:32.754Z,1.83
2022-12-20T13:26:34.106Z,1.84
2022-12-20T13:28:35.401Z,1.81
2022-12-20T13:30:36.634Z,1.84
2022-12-20T13:32:37.705Z,1.8
2022-12-20T13:34:38.742Z,1.84
2022-12-20T13:36:40.516Z,1.87
2022-12-20T13:38:41.776Z,1.96
2022-12-20T13:40:43.780Z,2.12
2022-12-20T13:42:45.306Z,1.99
2022-12-20T13:44:46.908Z,1.96
2022-12-20T13:46:48.616Z,2.02
2022-12-20T13:48:50.341Z,2.08
2022-12-20T13:50:52.028Z,2.11
2022-12-20T13:52:53.035Z,2.13
2022-12-20T13:56:56.028Z,2.17
2022-12-20T13:58:57.330Z,2.17
2022-12-20T14:00:59.044Z,2.24
2022-12-20T14:03:00.407Z,2.32
2022-12-20T14:05:02.163Z,2.37
2022-12-20T14:07:03.147Z,2.49
2022-12-20T14:09:04.438Z,2.58
2022-12-20T14:11:05.753Z,2.41
2022-12-20T14:13:07.040Z,2.47
2022-12-20T14:15:08.924Z,2.52
2022-12-20T14:17:10.720Z,2.47
2022-12-20T14:19:11.964Z,2.51
2022-12-20T14:21:13.714Z,2.47
2022-12-20T14:23:15.542Z,2.37
2022-12-20T14:25:17.471Z,2.25
2022-12-20T14:27:18.804Z,2.13
2022-12-20T14:29:20.100Z,2.07
2022-12-20T14:31:22.089Z,2.03
2022-12-20T14:33:23.247Z,2
2022-12-20T14:35:25.151Z,2.01
2022-12-20T14:37:26.904Z,1.92
2022-12-20T14:39:28.817Z,1.9
2022-12-20T14:41:30.726Z,1.84
2022-12-20T14:43:32.433Z,1.87
2022-12-20T14:45:34.177Z,1.81
2022-12-20T14:47:36.220Z,1.8
2022-12-20T14:49:36.679Z,1.79
2022-12-20T14:51:38.341Z,1.8
2022-12-20T14:53:39.529Z,1.77
2022-12-20T14:55:41.447Z,1.83
2022-12-20T14:57:43.452Z,1.8
2022-12-20T14:59:45.439Z,1.83
2022-12-20T15:01:46.556Z,1.8
2022-12-20T15:03:47.516Z,1.81
2022-12-20T15:05:49.033Z,1.78
2022-12-20T15:07:50.269Z,1.8
2022-12-20T15:09:51.789Z,1.79
2022-12-20T15:11:53.150Z,1.76
2022-12-20T15:13:54.879Z,1.74
2022-12-20T15:15:56.219Z,1.74
2022-12-20T15:17:57.667Z,1.73
2022-12-20T15:19:58.809Z,1.69
2022-12-20T15:22:00.038Z,1.7
2022-12-20T15:24:01.808Z,1.68
2022-12-20T15:26:03.357Z,1.7
2022-12-20T15:28:05.292Z,1.75
2022-12-20T15:30:06.829Z,1.73
2022-12-20T15:32:08.441Z,1.75
2022-12-20T15:34:09.691Z,1.75
2022-12-20T15:36:11.289Z,1.7
2022-12-20T15:38:13.329Z,1.71
2022-12-20T15:40:15.270Z,1.68
2022-12-20T15:42:17.340Z,1.54
2022-12-20T15:44:19.065Z,1.54
2022-12-20T15:46:20.276Z,1.59
2022-12-20T15:48:22.159Z,1.68
2022-12-20T15:50:23.599Z,1.7
2022-12-20T15:52:25.387Z,1.69
2022-12-20T15:54:26.857Z,1.56
2022-12-20T15:56:28.136Z,1.55
2022-12-20T15:58:29.389Z,1.56
2022-12-20T16:00:31.189Z,1.54
2022-12-20T16:02:33.161Z,1.52
2022-12-20T16:04:34.385Z,1.5
2022-12-20T16:06:35.735Z,1.45
2022-12-20T16:08:36.982Z,1.44
2022-12-20T16:10:38.471Z,1.43
2022-12-20T16:12:39.976Z,1.44
2022-12-20T16:14:41.109Z,1.44
2022-12-20T16:16:43.233Z,1.48
2022-12-20T16:18:44.748Z,1.46
2022-12-20T16:20:45.952Z,1.45
2022-12-20T16:22:47.021Z,1.43
2022-12-20T16:24:48.402Z,1.41
2022-12-20T16:26:50.448Z,1.37
2022-12-20T16:28:52.065Z,1.39
2022-12-20T16:30:53.813Z,1.37
2022-12-20T16:32:55.124Z,1.34
2022-12-20T16:34:56.313Z,1.4
2022-12-20T16:36:57.812Z,1.44
2022-12-20T16:38:59.103Z,1.45
2022-12-20T16:41:00.227Z,1.48
2022-12-20T16:43:01.673Z,1.46
2022-12-20T16:45:02.967Z,1.47
2022-12-20T16:47:04.236Z,1.47
2022-12-20T16:49:05.795Z,1.46
2022-12-20T16:51:07.062Z,1.4
2022-12-20T16:53:08.241Z,1.38
2022-12-20T16:55:10.067Z,1.44
2022-12-20T16:57:12.054Z,1.42
2022-12-20T16:59:21.091Z,1.4
2022-12-20T17:01:16.855Z,1.43
2022-12-20T17:03:17.754Z,1.39
2022-12-20T17:05:19.478Z,1.39
2022-12-20T17:07:20.942Z,1.32
2022-12-20T17:09:22.593Z,1.37
2022-12-20T17:11:23.929Z,1.35
2022-12-20T17:13:25.240Z,1.36
2022-12-20T17:15:26.614Z,1.34
2022-12-20T17:17:27.750Z,1.4
2022-12-20T17:19:29.321Z,1.35
2022-12-20T17:21:30.690Z,1.47
2022-12-20T17:23:47.958Z,1.42
2022-12-20T17:25:33.359Z,1.46
2022-12-20T17:27:35.348Z,1.42
2022-12-20T17:29:36.979Z,1.46
2022-12-20T17:31:38.775Z,1.41
2022-12-20T17:33:40.766Z,1.41
2022-12-20T17:35:42.563Z,1.36
2022-12-20T17:37:43.844Z,1.37
2022-12-20T17:39:45.619Z,1.36
2022-12-20T17:41:46.608Z,1.26
2022-12-20T17:43:48.492Z,1.24
2022-12-20T17:45:50.520Z,1.11
2022-12-20T17:47:52.532Z,1.11
2022-12-20T17:49:54.677Z,1.13
2022-12-20T17:51:56.259Z,1.13
2022-12-20T17:53:57.461Z,1.13
2022-12-20T17:55:59.185Z,1.21
2022-12-20T17:58:00.982Z,1.19
2022-12-20T18:00:02.450Z,1.26
2022-12-20T18:02:04.328Z,1.11
2022-12-20T18:04:06.026Z,1.13
2022-12-20T18:06:08.224Z,1.06
2022-12-20T18:08:07.904Z,1.11
2022-12-20T18:10:09.754Z,1.11
2022-12-20T18:12:11.364Z,1.09
2022-12-20T18:14:12.817Z,1.1
2022-12-20T18:16:14.441Z,1.27
2022-12-20T18:18:16.368Z,1.23
2022-12-20T18:20:17.655Z,1.24
2022-12-20T18:22:19.235Z,1.19
2022-12-20T18:24:20.872Z,1.2
2022-12-20T18:26:22.690Z,1.13
2022-12-20T18:28:24.896Z,1.18
2022-12-20T18:30:26.558Z,1.16
2022-12-20T18:32:28.011Z,1.22
2022-12-20T18:34:29.975Z,1.22
2022-12-20T18:36:31.708Z,1.25
2022-12-20T18:38:32.940Z,1.26
2022-12-20T18:40:34.988Z,1.22
2022-12-20T18:42:37.105Z,1.21
2022-12-20T18:44:39.126Z,1.21
2022-12-20T18:46:40.471Z,1.16
2022-12-20T18:48:42.147Z,1.22
2022-12-20T18:50:43.475Z,1.18
2022-12-20T18:52:47.221Z,1.18
2022-12-20T18:54:46.493Z,1.17
2022-12-20T18:56:48.050Z,1.21
2022-12-20T18:58:49.655Z,1.19
2022-12-20T19:00:51.277Z,1.15
2022-12-20T19:02:52.597Z,1.13
2022-12-20T19:05:38.055Z,1.12
2022-12-20T19:07:39.453Z,1.1
2022-12-20T19:09:41.050Z,1.09
2022-12-20T19:11:42.563Z,1.11
2022-12-20T19:13:43.994Z,1.16
2022-12-20T19:15:45.203Z,1.2
2022-12-20T19:17:46.591Z,1.19
2022-12-20T19:19:47.766Z,1.14
2022-12-20T19:21:49.679Z,1.12
2022-12-20T19:23:51.800Z,1.11
2022-12-20T19:25:53.174Z,1.12
2022-12-20T19:27:54.835Z,1.14
2022-12-20T19:29:56.957Z,1.18
2022-12-20T19:31:58.494Z,1.16
2022-12-20T19:34:00.405Z,1.14
2022-12-20T19:36:02.556Z,1.19
2022-12-20T19:38:03.663Z,1.15
2022-12-20T19:40:05.109Z,1.18
2022-12-20T19:42:24.738Z,1.13
2022-12-20T19:44:08.225Z,1.12
2022-12-20T19:46:10.046Z,1.13
2022-12-20T19:48:11.269Z,1.14
2022-12-20T19:50:13.026Z,1.14
2022-12-20T19:52:14.796Z,1.16
2022-12-20T19:54:15.916Z,1.13
2022-12-20T19:56:17.120Z,1.2
2022-12-20T19:58:19.169Z,1.2
2022-12-20T20:00:20.240Z,1.23
2022-12-20T20:02:22.349Z,1.22
2022-12-20T20:04:23.554Z,1.22
2022-12-20T20:06:25.109Z,1.23
2022-12-20T20:08:26.654Z,1.26
2022-12-20T20:10:27.984Z,1.25
2022-12-20T20:12:29.700Z,1.24
2022-12-20T20:14:30.842Z,1.25
2022-12-20T20:16:31.987Z,1.23
2022-12-20T20:18:33.481Z,1.23
2022-12-20T20:20:34.809Z,1.19
2022-12-20T20:22:36.576Z,1.23
2022-12-20T20:24:38.547Z,1.23
2022-12-20T20:26:40.290Z,1.25
2022-12-20T20:30:43.891Z,1.28
2022-12-20T20:32:45.791Z,1.25
2022-12-20T20:34:47.217Z,1.27
2022-12-20T20:36:48.752Z,1.21
2022-12-20T20:38:49.992Z,1.21
2022-12-20T20:40:51.115Z,1.21
2022-12-20T20:42:53.189Z,1.23
2022-12-20T20:44:54.391Z,1.3
2022-12-20T20:46:55.732Z,1.29
2022-12-20T20:48:57.520Z,1.29
2022-12-20T20:50:59.474Z,1.31
2022-12-20T20:53:00.885Z,1.31
2022-12-20T20:55:02.674Z,1.3
2022-12-20T20:57:04.314Z,1.33
2022-12-20T20:59:08.235Z,1.32
2022-12-20T21:01:07.549Z,1.4
2022-12-20T21:03:08.591Z,1.39
2022-12-20T21:06:00.098Z,1.39
2022-12-20T21:07:11.514Z,1.42
2022-12-20T21:09:13.307Z,1.41
2022-12-20T21:13:16.519Z,1.41
2022-12-20T21:15:22.803Z,1.46
2022-12-20T21:17:19.066Z,1.48
2022-12-20T21:19:21.539Z,1.45
2022-12-20T21:21:22.642Z,1.4
2022-12-20T21:23:23.723Z,1.39
2022-12-20T21:25:25.190Z,1.38
2022-12-20T21:27:26.426Z,1.41
2022-12-20T21:29:27.829Z,1.4
2022-12-20T21:31:29.003Z,1.42
2022-12-20T21:33:30.863Z,1.44
2022-12-20T21:35:32.012Z,1.46
2022-12-20T21:37:33.709Z,1.44
2022-12-20T21:39:35.140Z,1.42
2022-12-20T21:41:36.262Z,1.44
2022-12-20T21:43:37.327Z,1.39
2022-12-20T21:45:39.063Z,1.39
2022-12-20T21:47:40.449Z,1.35
2022-12-20T21:49:42.040Z,1.33
2022-12-20T21:51:43.555Z,1.34
2022-12-20T21:53:44.695Z,1.33
2022-12-20T21:55:46.338Z,1.34
2022-12-20T21:57:47.779Z,1.38
2022-12-20T21:59:49.393Z,1.38
2022-12-20T22:01:50.923Z,1.38
2022-12-20T22:03:52.814Z,1.39
2022-12-20T22:05:54.316Z,1.4
2022-12-20T22:07:56.147Z,1.41
2022-12-20T22:09:57.210Z,1.4
2022-12-20T22:11:58.392Z,1.39
2022-12-20T22:13:59.898Z,1.4
2022-12-20T22:16:01.893Z,1.38
2022-12-20T22:18:03.285Z,1.4
2022-12-20T22:20:04.928Z,1.35
2022-12-20T22:22:06.514Z,1.38
2022-12-20T22:24:08.116Z,1.34
2022-12-20T22:26:09.327Z,1.38
2022-12-20T22:28:10.803Z,1.38
2022-12-20T22:30:12.473Z,1.36
2022-12-20T22:32:13.859Z,1.34
2022-12-20T22:34:14.822Z,1.34
2022-12-20T22:36:16.600Z,1.35
2022-12-20T22:38:17.978Z,1.38
2022-12-20T22:40:19.206Z,1.39
2022-12-20T22:42:20.891Z,1.4
2022-12-20T22:44:22.903Z,1.42
2022-12-20T22:46:24.566Z,1.38
2022-12-20T22:48:25.532Z,1.49
2022-12-20T22:50:27.467Z,1.45
2022-12-20T22:52:29.031Z,1.45
2022-12-20T22:54:30.346Z,1.43
2022-12-20T22:56:32.002Z,1.43
2022-12-20T22:58:33.234Z,1.38
2022-12-20T23:00:34.979Z,1.39
2022-12-20T23:02:36.892Z,1.41
2022-12-20T23:04:38.197Z,1.4
2022-12-20T23:06:39.513Z,1.36
2022-12-20T23:08:41.325Z,1.4
2022-12-20T23:10:42.703Z,1.38
2022-12-20T23:12:44.565Z,1.37
2022-12-20T23:14:46.452Z,1.37
2022-12-20T23:16:47.824Z,1.36
2022-12-20T23:18:49.675Z,1.34
2022-12-20T23:20:51.196Z,1.36
2022-12-20T23:22:52.443Z,1.34
2022-12-20T23:24:54.328Z,1.42
2022-12-20T23:26:55.405Z,1.42
2022-12-20T23:28:56.700Z,1.47
2022-12-20T23:30:58.589Z,1.47
2022-12-20T23:33:00.461Z,1.43
2022-12-20T23:35:04.458Z,1.42
2022-12-20T23:37:03.374Z,1.43
2022-12-20T23:39:04.993Z,1.47
2022-12-20T23:41:06.298Z,1.47
2022-12-20T23:43:08.157Z,1.48
2022-12-20T23:45:09.520Z,1.47
2022-12-20T23:47:14.258Z,1.48
2022-12-20T23:49:12.356Z,1.46
2022-12-20T23:51:14.359Z,1.49
2022-12-20T23:53:16.273Z,1.51
2022-12-20T23:55:17.446Z,1.48
2022-12-20T23:57:19.492Z,1.43
2022-12-20T23:59:21.113Z,1.43
